BE6607 / G-SAJC 7700 Squawk Report (5th of October, 2020)

Aircraft E145 Reg No. G-SAJC Age N/A
Model ERJ-145 Jet engines 2 First flight 06-00
Registered 17-12-18 Rollout 06-00 Delivered 29-06-00
Construction No. 145280 Line No. N/A Series EP
ADSHEX 400896 Airline name Loganair Owner N/A
Airfield based Glasgow~Renfrewshire~G First tracked N/A

Flight history for G-SAJC

Route Flight No Date Playback
Liverpool (LPL) - Edinburgh (EDI) N/A 2020-10-22 01:10:00
Schiphol (AMS) - Liverpool (LPL) N/A 2020-10-22 00:07:00
Liverpool (LPL) - Schiphol (AMS) N/A 2020-10-20 09:02:00
Edinburgh (EDI) - Liverpool (LPL) N/A 2020-10-20 05:44:00
Norwich (NWI) - Edinburgh (EDI) BE6607 2020-10-19 15:38:00
Edinburgh (EDI) - Norwich (NWI) BE6608 2020-10-19 13:58:00
Exeter (EXT) - Edinburgh (EDI) LM318 2020-10-19 12:08:00
Edinburgh (EDI) - Exeter (EXT) LM317 2020-10-19 11:23:00
Southampton (SOU) - Edinburgh (EDI) LM328 2020-10-18 19:38:00
Edinburgh (EDI) - Southampton (SOU) LM327 2020-10-18 18:48:00
Stornoway (SYY) - Edinburgh (EDI) N/A 2020-10-18 11:58:00
Edinburgh (EDI) - Stornoway (SYY) BE6941 2020-10-18 10:39:00
Exeter (EXT) - Edinburgh (EDI) LM318 2020-10-17 12:35:00
Edinburgh (EDI) - Exeter (EXT) LM317 2020-10-17 11:52:00
Norwich (NWI) - Edinburgh (EDI) BE6607 2020-10-16 15:46:00
Edinburgh (EDI) - Norwich (NWI) BE6608 2020-10-16 14:24:00
Exeter (EXT) - Edinburgh (EDI) LM318 2020-10-16 12:44:00
Edinburgh (EDI) - Exeter (EXT) LM317 2020-10-16 12:02:00
Norwich (NWI) - Edinburgh (EDI) BE6607 2020-10-12 15:38:00
Edinburgh (EDI) - Norwich (NWI) BE6608 2020-10-12 14:04:00
Time Lat Lon Altitude Heading Speed Vertical Rate
2020-10-05 15:42:15 GMT 55.569767 -3.054278 12,425 319 266 -1560
2020-10-05 15:41:07 GMT 55.490585 -3.059289 13,675 319 266 -1560
2020-10-05 15:40:48 GMT 55.470863 -3.037462 14,075 306 269 -1200
2020-10-05 15:40:34 GMT 55.459652 -3.012587 14,375 302 271 -1260
2020-10-05 15:40:24 GMT 55.453068 -2.995087 14,525 304 271 -1140
2020-10-05 15:40:08 GMT 55.441715 -2.965863 14,825 305 270 -960
2020-10-05 15:39:58 GMT 55.434349 -2.947866 15,100 303 266 -1140
2020-10-05 15:39:48 GMT 55.427525 -2.929758 15,400 305 274 -3000
2020-10-05 15:39:37 GMT 55.419373 -2.909745 15,600 304 266 -2160
2020-10-05 15:39:26 GMT 55.411915 -2.890416 15,950 310 244 -1200
2020-10-05 15:39:16 GMT 55.404423 -2.873362 16,250 305 298 -1080
2020-10-05 15:39:06 GMT 55.396481 -2.853474 16,450 306 267 -1980
2020-10-05 15:38:56 GMT 55.389080 -2.835967 16,700 304 255 -1800
2020-10-05 15:38:46 GMT 55.382481 -2.818405 17,175 305 270 -3660
2020-10-05 15:38:36 GMT 55.375164 -2.800973 17,500 307 234 -2160
2020-10-05 15:38:26 GMT 55.361107 -2.761849 17,875 305 249 -1980
2020-10-05 15:38:16 GMT 55.354568 -2.745884 18,275 304 259 -1500
2020-10-05 15:38:06 GMT 55.346298 -2.725811 18,700 305 266 -1080
2020-10-05 15:37:54 GMT 55.346298 -2.725811 19,025 309 233 -2280
2020-10-05 15:37:43 GMT 55.331078 -2.687468 19,350 307 232 -1080
2020-10-05 15:37:33 GMT 55.331078 -2.687468 19,600 305 253 -1260
2020-10-05 15:37:22 GMT 55.323284 -2.667783 19,975 305 274 -2580
2020-10-05 15:37:12 GMT 55.315899 -2.649659 20,225 306 252 -1320
2020-10-05 15:37:00 GMT 55.307545 -2.629866 20,550 319 287 -840
2020-10-05 15:36:49 GMT 55.296322 -2.613316 20,800 290 309 -1680
2020-10-05 15:36:39 GMT 55.283375 -2.571590 21,000 308 268 -2460
2020-10-05 15:36:28 GMT 55.283375 -2.571590 21,200 302 305 0
2020-10-05 15:36:18 GMT 55.276180 -2.552302 21,575 304 298 -300
2020-10-05 15:36:06 GMT 55.267609 -2.530089 21,875 305 261 -300
2020-10-05 15:35:55 GMT 55.261082 -2.510256 22,000 311 339 0
2020-10-05 15:35:44 GMT 55.243336 -2.471573 22,000 306 261 0
2020-10-05 15:35:34 GMT 55.235519 -2.452200 22,000 305 285 0
2020-10-05 15:35:24 GMT 55.229588 -2.433866 22,000 298 248 0
2020-10-05 15:35:14 GMT 55.229588 -2.433866 22,000 309 336 0
2020-10-05 15:35:04 GMT 55.212910 -2.395555 22,000 304 273 0
2020-10-05 15:34:54 GMT 55.212910 -2.395555 22,000 306 273 -180
2020-10-05 15:34:44 GMT 55.205437 -2.377693 22,000 305 318 -240
2020-10-05 15:34:34 GMT 55.196705 -2.357721 22,025 305 281 -1200
2020-10-05 15:34:24 GMT 55.189770 -2.339201 22,050 313 332 0
2020-10-05 15:34:14 GMT 55.181744 -2.318431 22,200 309 271 -840
2020-10-05 15:34:04 GMT 55.174351 -2.302290 22,375 303 353 -780
2020-10-05 15:33:53 GMT 55.164669 -2.277430 22,575 304 292 -3060
2020-10-05 15:33:43 GMT 55.156956 -2.257930 22,750 305 330 -2340
2020-10-05 15:33:33 GMT 55.147911 -2.235747 22,975 304 272 -1200
2020-10-05 15:33:23 GMT 55.131683 -2.195390 23,350 317 306 -900
2020-10-05 15:33:13 GMT 55.131683 -2.195390 23,450 305 322 -1740
2020-10-05 15:33:01 GMT 55.113075 -2.149581 23,775 304 308 -1260
2020-10-05 15:32:51 GMT 55.113075 -2.149581 23,925 305 308 -1140
2020-10-05 15:32:39 GMT 55.103081 -2.125107 24,275 306 307 -1500
2020-10-05 15:32:29 GMT 55.094566 -2.105224 24,500 305 291 -960
2020-10-05 15:32:18 GMT 55.085880 -2.084217 24,850 306 308 -840
2020-10-05 15:32:05 GMT 55.074753 -2.058244 25,025 302 312 -1560
2020-10-05 15:31:55 GMT 55.066895 -2.037052 25,275 310 300 -1380
2020-10-05 15:31:45 GMT 55.057808 -2.018641 25,550 302 291 -900
2020-10-05 15:31:34 GMT 55.049938 -1.996691 25,675 305 318 -180
2020-10-05 15:31:23 GMT 55.039185 -1.976059 25,950 299 296 -120
2020-10-05 15:31:13 GMT 55.031303 -1.956895 26,000 304 302 -300
2020-10-05 15:31:03 GMT 55.023010 -1.938830 26,025 303 314 -1200
2020-10-05 15:30:53 GMT 55.014862 -1.917756 26,075 308 274 -1380
2020-10-05 15:30:42 GMT 55.006954 -1.898850 26,275 307 307 -960
2020-10-05 15:30:31 GMT 54.997452 -1.877196 26,425 312 266 -780
2020-10-05 15:30:21 GMT 54.981491 -1.841914 26,650 308 268 -1800
2020-10-05 15:30:10 GMT 54.981491 -1.841914 26,775 301 290 -4560
2020-10-05 15:30:00 GMT 54.974503 -1.821958 27,100 304 256 -3240
2020-10-05 15:29:50 GMT 54.967937 -1.803425 27,500 305 261 -1320
2020-10-05 15:29:40 GMT 54.961681 -1.784713 27,900 301 274 -1800
2020-10-05 15:29:30 GMT 54.955132 -1.765759 28,025 296 266 -2100
2020-10-05 15:29:20 GMT 54.941311 -1.728157 28,300 309 282 -960
2020-10-05 15:29:10 GMT 54.941311 -1.728157 28,525 312 271 -1380
2020-10-05 15:28:59 GMT 54.931660 -1.708333 28,875 313 286 -2220
2020-10-05 15:28:49 GMT 54.922913 -1.691729 29,125 310 286 0
2020-10-05 15:28:39 GMT 54.912842 -1.677717 29,475 305 292 -3000
2020-10-05 15:28:29 GMT 54.903233 -1.661153 29,900 319 304 -2640
2020-10-05 15:28:19 GMT 54.894253 -1.644882 30,075 324 344 -2700
2020-10-05 15:28:08 GMT 54.870399 -1.613830 30,375 322 298 -720
2020-10-05 15:27:58 GMT 54.870399 -1.613830 30,600 321 323 -780
2020-10-05 15:27:47 GMT 54.858410 -1.597724 30,875 315 320 -3720
2020-10-05 15:27:36 GMT 54.845848 -1.579273 31,250 322 290 0
2020-10-05 15:27:25 GMT 54.833805 -1.562661 31,550 322 295 -600
2020-10-05 15:27:15 GMT 54.823006 -1.548079 31,800 319 332 -2040
2020-10-05 15:27:05 GMT 54.811378 -1.530605 32,050 321 325 -1800
2020-10-05 15:26:55 GMT 54.799664 -1.514197 32,275 322 321 -480
2020-10-05 15:26:45 GMT 54.789833 -1.499378 32,450 319 316 -1080
2020-10-05 15:26:35 GMT 54.776577 -1.481712 32,700 321 331 -1620
2020-10-05 15:26:25 GMT 54.764168 -1.465303 32,900 320 318 -10500
2020-10-05 15:26:14 GMT 54.738239 -1.428835 33,250 322 342 4500
2020-10-05 15:26:03 GMT 54.725052 -1.411573 33,500 323 335 2220
2020-10-05 15:25:53 GMT 54.725052 -1.411573 33,700 321 360 2220
2020-10-05 15:25:43 GMT 54.713024 -1.395639 33,975 321 393 -1620
2020-10-05 15:25:33 GMT 54.699142 -1.376307 34,250 323 337 -2040
2020-10-05 15:25:22 GMT 54.685085 -1.357759 34,725 321 340 -1680
2020-10-05 15:25:11 GMT 54.670910 -1.338726 35,200 322 323 -2640
2020-10-05 15:25:00 GMT 54.656807 -1.319927 35,475 322 362 0
2020-10-05 15:24:50 GMT 54.645344 -1.303854 35,800 320 353 -60
2020-10-05 15:24:39 GMT 54.618729 -1.269070 36,000 318 340 0
2020-10-05 15:24:29 GMT 54.618729 -1.269070 36,000 320 325 0
2020-10-05 15:24:19 GMT 54.607571 -1.252968 36,000 318 350 0
2020-10-05 15:24:08 GMT 54.592972 -1.233380 36,000 326 329 0
2020-10-05 15:23:58 GMT 54.581261 -1.217268 36,000 326 333 0
2020-10-05 15:23:47 GMT 54.567745 -1.199271 36,000 320 334 0
2020-10-05 15:23:37 GMT 54.555752 -1.182438 36,000 316 321 0
2020-10-05 15:23:27 GMT 54.530499 -1.148749 36,000 323 323 0
2020-10-05 15:23:16 GMT 54.530499 -1.148749 36,000 320 327 0
2020-10-05 15:23:06 GMT 54.506790 -1.118332 36,000 322 340 0
2020-10-05 15:22:56 GMT 54.506790 -1.118332 36,000 323 325 0
2020-10-05 15:22:44 GMT 54.479996 -1.080229 36,000 318 334 0
2020-10-05 15:22:34 GMT 54.479996 -1.080229 36,000 323 337 0
2020-10-05 15:22:24 GMT 54.454170 -1.046129 36,000 321 333 0
2020-10-05 15:22:13 GMT 54.442410 -1.031336 36,000 325 302 0
2020-10-05 15:22:03 GMT 54.442410 -1.031336 36,000 319 323 0
2020-10-05 15:21:52 GMT 54.429291 -1.013866 36,000 321 369 0
2020-10-05 15:21:41 GMT 54.413986 -0.995451 36,000 319 316 0
2020-10-05 15:21:30 GMT 54.401730 -0.977520 36,000 322 338 0
2020-10-05 15:21:18 GMT 54.386856 -0.957736 36,000 325 332 0
2020-10-05 15:21:08 GMT 54.373905 -0.942163 36,000 321 328 0
2020-10-05 15:20:57 GMT 54.360718 -0.924466 36,000 322 340 0
2020-10-05 15:20:46 GMT 54.346352 -0.905773 36,000 323 337 0
2020-10-05 15:20:36 GMT 54.334038 -0.890113 36,000 324 346 0
2020-10-05 15:20:24 GMT 54.287224 -0.832394 36,000 323 297 0
2020-10-05 15:19:58 GMT 54.287224 -0.832394 36,000 323 297 0
2020-10-05 15:19:47 GMT 54.272800 -0.813365 36,000 322 357 0
2020-10-05 15:19:37 GMT 54.260067 -0.797075 36,000 323 341 0
2020-10-05 15:19:27 GMT 54.247791 -0.782496 36,000 322 325 0
2020-10-05 15:19:17 GMT 54.235889 -0.766718 36,000 327 356 0
2020-10-05 15:19:07 GMT 54.222099 -0.750600 36,000 338 445 0
2020-10-05 15:18:56 GMT 54.200981 -0.736396 36,000 303 274 0
2020-10-05 15:18:46 GMT 54.184219 -0.701371 36,000 321 289 0
2020-10-05 15:18:36 GMT 54.170578 -0.684985 36,000 323 372 0
2020-10-05 15:18:26 GMT 54.170578 -0.684985 36,000 319 313 0
2020-10-05 15:18:16 GMT 54.159481 -0.669103 36,000 327 399 0
2020-10-05 15:18:05 GMT 54.142441 -0.650212 36,000 316 264 0
2020-10-05 15:17:53 GMT 54.131794 -0.632989 36,000 321 320 0
2020-10-05 15:17:43 GMT 54.119305 -0.616538 36,000 322 313 0
2020-10-05 15:17:33 GMT 54.089951 -0.579101 36,000 326 370 0
2020-10-05 15:17:21 GMT 54.089951 -0.579101 36,000 310 321 0
2020-10-05 15:17:11 GMT 54.077240 -0.565104 36,000 299 282 0
2020-10-05 15:17:00 GMT 54.068001 -0.544776 36,000 315 337 0
2020-10-05 15:16:50 GMT 54.055565 -0.525362 36,000 314 357 0
2020-10-05 15:16:40 GMT 54.043972 -0.505247 36,000 301 256 60
2020-10-05 15:16:29 GMT 54.035488 -0.485338 36,000 303 326 -60
2020-10-05 15:16:19 GMT 54.018036 -0.439077 36,000 302 322 0
2020-10-05 15:16:08 GMT 54.018036 -0.439077 36,000 308 317 0
2020-10-05 15:15:58 GMT 54.008087 -0.417408 36,000 312 335 0
2020-10-05 15:15:48 GMT 53.999607 -0.395731 36,000 317 375 0
2020-10-05 15:15:37 GMT 53.987488 -0.371109 36,000 274 304 0
2020-10-05 15:15:27 GMT 53.980549 -0.350177 36,000 310 379 0
2020-10-05 15:15:16 GMT 53.971066 -0.326816 36,000 306 327 0
2020-10-05 15:15:05 GMT 53.961040 -0.304513 36,000 306 349 0
2020-10-05 15:14:52 GMT 53.949150 -0.275354 36,000 308 329 0
2020-10-05 15:14:41 GMT 53.938648 -0.253113 36,000 319 366 0
2020-10-05 15:14:31 GMT 53.926960 -0.233195 35,975 320 337 0
2020-10-05 15:14:20 GMT 53.914146 -0.215258 36,000 326 330 0
2020-10-05 15:14:10 GMT 53.901417 -0.201618 36,000 333 389 60
2020-10-05 15:13:59 GMT 53.884811 -0.187494 36,000 336 298 -120
2020-10-05 15:13:49 GMT 53.853569 -0.171076 35,975 346 350 0
2020-10-05 15:13:38 GMT 53.853569 -0.171076 36,000 345 364 0
2020-10-05 15:13:28 GMT 53.837532 -0.164192 36,000 345 362 0
2020-10-05 15:13:18 GMT 53.820652 -0.157350 36,000 344 330 0
2020-10-05 15:13:05 GMT 53.800274 -0.148173 36,000 343 353 0
2020-10-05 15:12:55 GMT 53.785599 -0.142186 35,975 347 345 0
2020-10-05 15:12:45 GMT 53.753139 -0.131385 36,000 352 328 0
2020-10-05 15:12:35 GMT 53.735062 -0.130047 36,000 358 364 0
2020-10-05 15:12:24 GMT 53.735062 -0.130047 36,000 6 324 180
2020-10-05 15:12:14 GMT 53.720127 -0.132718 35,925 8 362 420
2020-10-05 15:12:03 GMT 53.702404 -0.137584 35,925 5 341 1560
2020-10-05 15:11:52 GMT 53.685104 -0.140645 35,775 8 378 960
2020-10-05 15:11:42 GMT 53.668510 -0.143897 35,500 14 361 1020
2020-10-05 15:11:32 GMT 53.652321 -0.151122 35,250 6 327 1080
2020-10-05 15:11:22 GMT 53.637253 -0.151322 35,000 346 358 1080
2020-10-05 15:11:11 GMT 53.619541 -0.144046 34,850 324 317 2640
2020-10-05 15:11:01 GMT 53.595631 -0.112190 34,475 321 340 1020
2020-10-05 15:10:51 GMT 53.595631 -0.112190 34,225 314 331 2400
2020-10-05 15:10:41 GMT 53.572643 -0.073805 33,875 318 310 2220
2020-10-05 15:10:30 GMT 53.572643 -0.073805 33,700 316 319 2400
2020-10-05 15:10:20 GMT 53.561890 -0.056706 33,500 334 375 360
2020-10-05 15:10:09 GMT 53.547718 -0.035547 33,100 321 361 1020
2020-10-05 15:09:58 GMT 53.532307 -0.014939 32,750 311 293 1500
2020-10-05 15:09:46 GMT 53.521290 0.006051 32,350 314 339 540
2020-10-05 15:09:32 GMT 53.507122 0.031528 32,100 311 384 0
2020-10-05 15:09:21 GMT 53.494106 0.056064 32,000 328 308 0
2020-10-05 15:09:10 GMT 53.480736 0.072853 32,000 318 335 0
2020-10-05 15:09:00 GMT 53.466557 0.092019 31,975 315 345 0
2020-10-05 15:08:50 GMT 53.454796 0.110529 32,000 307 294 360
2020-10-05 15:08:39 GMT 53.442692 0.128964 31,975 308 331 660
2020-10-05 15:08:28 GMT 53.432480 0.152276 31,925 293 285 720
2020-10-05 15:08:18 GMT 53.421623 0.170790 31,850 319 366 1020
2020-10-05 15:08:04 GMT 53.385891 0.192462 31,750 258 267 1080
2020-10-05 15:07:50 GMT 53.390484 0.220795 31,475 298 229 0
2020-10-05 15:07:40 GMT 53.378460 0.238495 31,300 314 292 720
2020-10-05 15:07:30 GMT 53.368919 0.254556 31,125 316 308 840
2020-10-05 15:07:20 GMT 53.358379 0.271950 30,975 312 326 1740
2020-10-05 15:07:10 GMT 53.347549 0.287537 30,775 320 294 1860
2020-10-05 15:07:00 GMT 53.336468 0.304938 30,575 313 288 420
2020-10-05 15:06:49 GMT 53.326366 0.322460 30,350 316 301 1080
2020-10-05 15:06:39 GMT 53.316288 0.338588 30,050 317 319 1920
2020-10-05 15:06:28 GMT 53.304890 0.357558 29,750 316 328 2340
2020-10-05 15:06:18 GMT 53.293804 0.374938 29,500 314 288 6180
2020-10-05 15:06:08 GMT 53.272755 0.407635 29,000 322 335 -960
2020-10-05 15:05:57 GMT 53.272755 0.407635 28,675 313 334 -900
2020-10-05 15:05:47 GMT 53.262691 0.424973 28,225 308 287 2160
2020-10-05 15:05:36 GMT 53.251289 0.442876 27,725 324 348 900
2020-10-05 15:05:26 GMT 53.238148 0.458446 27,450 309 366 600
2020-10-05 15:05:14 GMT 53.216724 0.499426 27,200 315 309 840
2020-10-05 15:05:04 GMT 53.216724 0.499426 27,100 312 313 1200
2020-10-05 15:04:54 GMT 53.206909 0.515423 26,900 315 320 1500
2020-10-05 15:04:43 GMT 53.195740 0.532943 26,675 315 309 1140
2020-10-05 15:04:33 GMT 53.185879 0.549223 26,400 315 301 1500
2020-10-05 15:04:23 GMT 53.175941 0.565595 26,075 315 297 1560
2020-10-05 15:04:11 GMT 53.164490 0.585641 25,725 313 271 4380
2020-10-05 15:04:00 GMT 53.144749 0.619157 25,350 325 291 2280
2020-10-05 15:03:50 GMT 53.144749 0.619157 24,950 314 287 2580
2020-10-05 15:03:40 GMT 53.135349 0.634862 24,400 314 301 2460
2020-10-05 15:03:28 GMT 53.121761 0.655508 23,900 313 313 3480
2020-10-05 15:03:18 GMT 53.110291 0.673421 23,300 312 219 1620
2020-10-05 15:03:08 GMT 53.102497 0.689527 22,625 317 304 2280
2020-10-05 15:02:57 GMT 53.080685 0.724261 22,150 314 325 2100
2020-10-05 15:02:47 GMT 53.080685 0.724261 21,750 313 314 1920
2020-10-05 15:02:37 GMT 53.070171 0.742568 21,475 313 318 1020
2020-10-05 15:02:27 GMT 53.061188 0.758717 21,175 305 252 1800
2020-10-05 15:02:16 GMT 53.040813 0.794220 20,725 312 288 2880
2020-10-05 15:02:06 GMT 53.040813 0.794220 20,500 313 320 1380
2020-10-05 15:01:55 GMT 53.029629 0.813929 20,175 314 286 1560
2020-10-05 15:01:43 GMT 53.017490 0.832111 19,750 319 291 2220
2020-10-05 15:01:31 GMT 52.991398 0.864050 19,350 302 232 3660
2020-10-05 15:01:18 GMT 52.991398 0.864050 18,925 324 313 0
2020-10-05 15:01:08 GMT 52.979580 0.877966 18,500 326 261 1740
2020-10-05 15:00:57 GMT 52.968491 0.890262 18,100 327 282 1680
2020-10-05 15:00:47 GMT 52.957504 0.902074 17,700 325 289 1560
2020-10-05 15:00:36 GMT 52.945740 0.916054 17,375 326 276 2700
2020-10-05 15:00:24 GMT 52.932999 0.930305 17,025 326 260 1680
2020-10-05 15:00:13 GMT 52.920723 0.942636 16,625 326 287 2280
2020-10-05 15:00:02 GMT 52.899811 0.966924 16,350 322 229 1260
2020-10-05 14:59:51 GMT 52.899811 0.966924 15,900 325 242 2760
2020-10-05 14:59:40 GMT 52.889587 0.978419 15,650 322 185 3600
2020-10-05 14:59:30 GMT 52.870136 0.998127 15,350 333 266 5820
2020-10-05 14:59:20 GMT 52.870136 0.998127 15,125 338 234 2520
2020-10-05 14:59:09 GMT 52.850407 1.019712 14,425 325 234 2220
2020-10-05 14:58:58 GMT 52.850407 1.019712 14,050 325 249 2460
2020-10-05 14:58:46 GMT 52.839012 1.032727 13,300 320 209 2280
2020-10-05 14:58:35 GMT 52.828442 1.044432 12,300 328 255 2100
2020-10-05 14:58:22 GMT 52.816605 1.057453 12,200 325 260 2580
2020-10-05 14:58:12 GMT 52.806667 1.068763 11,650 324 221 6180
2020-10-05 14:58:02 GMT 52.798336 1.078585 11,275 328 276 3180
2020-10-05 14:57:52 GMT 52.790565 1.087514 10,650 324 245 3060
2020-10-05 14:57:41 GMT 52.781471 1.099041 10,050 326 233 1500
2020-10-05 14:57:30 GMT 52.770481 1.110734 9,550 322 205 2280
2020-10-05 14:57:20 GMT 52.762455 1.120277 9,075 324 231 1800
2020-10-05 14:57:08 GMT 52.752384 1.132367 8,575 317 161 4020
2020-10-05 14:56:58 GMT 52.737953 1.151798 8,200 323 230 4020
2020-10-05 14:56:47 GMT 52.737953 1.151798 7,850 323 256 2640

Making use of Plane Finder data

You are free to use the raw flight data, aircraft information and images provided in this report for your own purposes provided the data is correctly attributed to Plane Finder. We ask that you please credit Plane Finder and link to planefinder.net in close proximity to the content.

Optionally one of the following logos (no smaller then 150x24px) can be used and must link to planefinder.net

Embedding the Plane Finder map

You are welcome to embed the Plane Finder playback map on your website to offer visitors a more interactive experience. We suggest using the following HTML code:

<iframe src="//planefinder.net/data/report/BE6607-G-SAJC-7700-squawk-2020-10-05/map" width="800" height="600" seamless="seamless"></iframe>

Where our data comes from

Plane Finder has a global network of data feeds and antenna radars that receive data broadcast directly from aircraft. The primary technologies used are ADS-B and MLAT. We also show feeds from the FAA and a FLARM glider feed.

Click here to find out more about the Plane Finder network.

How we collect our data